Time;durP1;ratioP1;P1;durP2;ratioP2;P2;SDS_P1;SDS_P2;PMS_P1;PMS_P2;Temp;Humidity;BMP_temperature;BMP_pressure;BME280_temperature;BME280_humidity;BME280_pressure;Samples;Min_cycle;Max_cycle;Signal;HPM_P1;HPM_P2
2022/08/12 00:44:28;;;;;;;6.32;3.10;;;;;;;19.10;41.26;101622.59;5015600;28;20492;-68
2022/08/12 00:46:59;;;;;;;4.50;2.13;;;;;;;19.04;41.43;101615.25;5014024;28;20058;-68
2022/08/12 00:49:29;;;;;;;19.20;3.15;;;;;;;18.97;41.67;101607.00;5014670;28;20079;-68
2022/08/12 00:52:05;;;;;;;12.07;3.10;;;;;;;18.98;41.70;101618.72;5014690;28;20045;-68
2022/08/12 00:54:43;;;;;;;10.35;2.80;;;;;;;18.93;41.70;101613.88;5014435;28;20048;-68
2022/08/12 00:57:21;;;;;;;16.15;3.15;;;;;;;18.65;42.52;101616.47;5014222;28;20057;-68
2022/08/12 00:59:56;;;;;;;9.85;2.80;;;;;;;18.70;42.07;101610.47;5014961;28;20124;-67
2022/08/12 01:02:31;;;;;;;7.03;2.65;;;;;;;18.61;42.78;101612.44;5014175;28;20132;-66
2022/08/12 01:11:31;;;;;;;4.93;2.20;;;;;;;18.47;43.10;101616.03;5032052;28;20450;-67
2022/08/12 01:14:02;;;;;;;16.63;3.38;;;;;;;18.47;42.84;101616.88;5032186;28;20171;-67
2022/08/12 01:16:29;;;;;;;8.48;2.83;;;;;;;18.40;43.17;101617.84;5031765;28;20072;-67
2022/08/12 01:18:56;;;;;;;10.85;2.80;;;;;;;18.41;42.77;101609.53;5031909;28;20065;-67
2022/08/12 01:22:01;;;;;;;10.43;2.70;;;;;;;18.42;43.07;101618.50;5015753;28;20068;-67
2022/08/12 01:24:27;;;;;;;7.93;3.38;;;;;;;18.43;43.10;101621.03;4995053;28;20088;-68
2022/08/12 01:26:59;;;;;;;8.63;2.70;;;;;;;18.35;43.29;101614.88;5022985;28;20139;-67
2022/08/12 01:29:28;;;;;;;13.18;2.78;;;;;;;18.40;43.28;101615.13;5031275;28;20049;-67
2022/08/12 01:32:05;;;;;;;7.03;2.60;;;;;;;18.25;43.50;101612.44;5032243;28;20543;-67
2022/08/12 01:34:35;;;;;;;10.68;3.28;;;;;;;18.37;42.97;101616.34;5031497;28;20124;-68
2022/08/12 01:37:06;;;;;;;11.50;2.83;;;;;;;18.30;43.19;101618.13;5031546;28;20447;-67
2022/08/12 01:39:46;;;;;;;6.85;2.88;;;;;;;18.29;43.44;101617.28;5016826;28;20509;-67
2022/08/12 01:42:43;;;;;;;5.93;3.28;;;;;;;18.28;43.40;101617.50;5013867;28;20042;-68
2022/08/12 01:45:11;;;;;;;7.88;3.13;;;;;;;18.29;43.39;101608.31;5013740;28;20057;-68
2022/08/12 01:47:48;;;;;;;15.98;2.50;;;;;;;18.21;43.25;101606.53;5012998;28;20052;-69
2022/08/12 01:50:35;;;;;;;12.45;2.95;;;;;;;18.15;43.66;101611.88;5032992;28;20060;-69
2022/08/12 01:53:11;;;;;;;8.70;3.05;;;;;;;18.21;43.52;101611.16;5033263;28;20497;-68
2022/08/12 01:55:41;;;;;;;9.23;3.10;;;;;;;18.21;43.37;101611.16;5034312;28;20501;-68
2022/08/12 01:59:45;;;;;;;6.80;2.70;;;;;;;18.18;43.50;101617.78;5034193;28;20076;-69
2022/08/12 02:01:24;;;;;;;18.73;3.28;;;;;;;18.17;43.51;101623.38;5034344;28;20270;-69
2022/08/12 02:13:24;;;;;;;6.30;3.10;;;;;;;18.16;43.27;101614.41;5003908;28;20037;-67
2022/08/12 02:16:29;;;;;;;13.57;3.25;;;;;;;18.05;43.16;101617.56;5013637;28;20417;-68
2022/08/12 02:19:33;;;;;;;9.70;2.90;;;;;;;18.07;43.20;101610.09;5020106;28;20046;-68
2022/08/12 02:22:37;;;;;;;8.57;3.13;;;;;;;18.07;43.18;101615.53;5007617;28;20518;-67
2022/08/12 02:25:04;;;;;;;7.50;2.90;;;;;;;17.94;43.48;101605.31;4978958;28;20503;-67
2022/08/12 02:27:38;;;;;;;13.50;3.60;;;;;;;17.94;43.40;101608.03;4972328;28;20126;-67
2022/08/12 02:30:08;;;;;;;9.55;3.40;;;;;;;17.97;43.27;101606.81;4971519;28;20134;-68
2022/08/12 02:32:42;;;;;;;14.95;3.63;;;;;;;17.97;43.44;101614.97;4971317;28;20380;-69
2022/08/12 02:35:13;;;;;;;8.82;3.25;;;;;;;17.95;43.14;101609.69;4971680;28;20089;-67
2022/08/12 02:37:41;;;;;;;;;;;;;;;18.07;42.98;101610.94;4971730;28;20082;-67
2022/08/12 02:40:09;;;;;;;10.90;3.15;;;;;;;18.03;43.30;101614.19;4978516;28;19922;-67
2022/08/12 02:42:49;;;;;;;12.10;3.30;;;;;;;18.05;42.97;101606.72;4990237;28;20147;-68
2022/08/12 02:45:21;;;;;;;10.38;3.05;;;;;;;18.05;43.01;101607.53;4990074;28;20447;-69
2022/08/12 02:47:50;;;;;;;7.32;2.95;;;;;;;18.08;42.93;101604.47;4990819;28;20129;-69
2022/08/12 02:50:30;;;;;;;15.35;3.20;;;;;;;18.01;43.06;101598.09;4990848;28;20553;-69
2022/08/12 02:52:58;;;;;;;8.48;2.88;;;;;;;18.06;42.64;101597.53;4990761;28;20046;-69
2022/08/12 02:55:30;;;;;;;8.50;3.28;;;;;;;18.06;42.94;101601.09;4989344;28;20056;-67
2022/08/12 02:58:08;;;;;;;10.15;3.05;;;;;;;17.83;43.10;101603.91;4993989;28;20046;-68
2022/08/12 03:00:41;;;;;;;10.73;3.20;;;;;;;17.89;42.95;101602.34;5037496;28;20037;-67
2022/08/12 03:03:11;;;;;;;9.35;2.97;;;;;;;17.89;43.22;101596.03;5032186;28;20416;-67
2022/08/12 03:05:56;;;;;;;14.65;3.05;;;;;;;17.80;43.34;101598.00;5031854;28;20452;-66
2022/08/12 03:08:29;;;;;;;16.70;3.70;;;;;;;17.80;43.13;101608.88;5031218;28;20556;-67
2022/08/12 03:11:03;;;;;;;7.28;2.97;;;;;;;17.78;43.36;101605.50;5031786;28;20136;-68
2022/08/12 03:13:41;;;;;;;11.23;3.85;;;;;;;17.70;43.43;101608.31;5029783;28;20041;-68
2022/08/12 03:16:08;;;;;;;15.70;3.97;;;;;;;17.81;43.09;101605.13;5038348;28;20072;-68
2022/08/12 03:18:35;;;;;;;12.90;3.17;;;;;;;17.75;43.00;101609.44;5032390;28;20128;-67
2022/08/12 03:21:02;;;;;;;8.20;3.08;;;;;;;17.67;43.43;101614.09;5031943;28;20056;-67
2022/08/12 03:23:29;;;;;;;5.10;2.95;;;;;;;17.60;43.31;101612.13;5026808;28;20124;-67
2022/08/12 03:26:00;;;;;;;8.48;3.30;;;;;;;17.76;43.02;101613.00;5032514;28;20436;-67
2022/08/12 03:28:49;;;;;;;13.32;3.25;;;;;;;17.71;43.33;101612.69;5029300;28;20041;-68
2022/08/12 03:31:23;;;;;;;12.30;3.20;;;;;;;17.67;43.27;101619.53;5029944;28;20072;-67
2022/08/12 03:33:51;;;;;;;10.63;3.40;;;;;;;17.55;43.59;101621.84;5031383;28;20053;-68
2022/08/12 03:36:34;;;;;;;9.40;3.40;;;;;;;17.56;43.51;101607.25;5030675;28;20084;-69
2022/08/12 03:42:24;;;;;;;8.18;3.50;;;;;;;17.63;43.09;101610.06;5031191;28;20049;-67
2022/08/12 04:01:57;;;;;;;12.07;3.80;;;;;;;17.51;43.59;101615.97;5031169;28;20045;-68
2022/08/12 04:04:25;;;;;;;13.75;3.55;;;;;;;17.49;43.39;101623.44;5030893;28;20081;-68
2022/08/12 04:06:52;;;;;;;5.85;3.25;;;;;;;17.49;43.34;101623.44;5031278;28;20123;-69
2022/08/12 04:09:20;;;;;;;19.75;3.30;;;;;;;;;;5031446;28;20041;-67
2022/08/12 04:14:35;;;;;;;14.50;3.65;;;;;;;17.46;43.50;101623.78;5029918;28;20049;-68
2022/08/12 04:17:02;;;;;;;11.43;3.35;;;;;;;17.46;43.60;101623.78;5030079;28;20048;-68
2022/08/12 04:19:30;;;;;;;11.90;3.70;;;;;;;17.46;43.31;101629.22;5031232;28;20084;-69
2022/08/12 04:21:56;;;;;;;12.60;3.80;;;;;;;17.51;43.09;101618.66;5030595;28;20052;-68
2022/08/12 04:24:30;;;;;;;12.68;3.45;;;;;;;17.49;42.99;101626.13;5031580;28;20133;-68
2022/08/12 04:26:57;;;;;;;8.68;3.13;;;;;;;17.42;43.51;101633.31;5030049;28;20219;-68
2022/08/12 04:29:25;;;;;;;12.80;3.80;;;;;;;17.48;43.38;101632.59;5031013;28;20124;-67
2022/08/12 04:32:12;;;;;;;13.48;3.42;;;;;;;17.50;43.11;101627.81;5031137;28;20049;-67
2022/08/12 04:34:40;;;;;;;9.75;3.78;;;;;;;;;;5031376;28;20103;-68
2022/08/12 04:37:07;;;;;;;8.70;3.83;;;;;;;17.60;42.98;101635.69;5030818;28;20068;-69
2022/08/12 04:39:34;;;;;;;12.95;3.30;;;;;;;17.60;42.97;101636.53;5031529;28;20076;-68
2022/08/12 04:42:01;;;;;;;9.77;3.35;;;;;;;17.68;42.82;101632.91;5030625;28;20037;-68
2022/08/12 04:44:27;;;;;;;10.85;3.45;;;;;;;17.69;43.11;101636.47;5030028;28;20408;-68
2022/08/12 04:46:54;;;;;;;20.25;4.03;;;;;;;17.73;42.67;101635.91;5031320;28;20137;-68
2022/08/12 04:49:23;;;;;;;11.60;3.47;;;;;;;17.72;42.83;101634.22;5030651;28;20053;-68
2022/08/12 04:51:50;;;;;;;8.43;3.58;;;;;;;17.73;42.55;101629.66;5030348;28;20041;-68
2022/08/12 04:54:25;;;;;;;9.77;3.15;;;;;;;17.83;42.65;101630.22;5030269;28;20378;-69
2022/08/12 04:56:52;;;;;;;15.07;4.32;;;;;;;17.74;42.75;101620.47;5030367;28;20132;-68
2022/08/12 04:59:34;;;;;;;12.00;3.05;;;;;;;17.81;42.56;101632.25;5031756;28;20049;-67
2022/08/12 05:02:18;;;;;;;14.15;3.75;;;;;;;17.78;42.38;101629.91;5030930;28;20068;-67
2022/08/12 05:04:56;;;;;;;19.70;3.92;;;;;;;17.77;42.54;101628.25;5030186;28;20070;-67
2022/08/12 05:07:27;;;;;;;10.20;3.72;;;;;;;17.84;42.73;101626.47;5031441;28;20056;-68
2022/08/12 05:09:53;;;;;;;10.63;3.60;;;;;;;17.79;42.45;101623.47;5029323;28;20378;-68
2022/08/12 05:12:33;;;;;;;9.25;3.22;;;;;;;17.79;42.46;101623.47;5030397;28;20486;-68
2022/08/12 05:15:00;;;;;;;19.02;4.05;;;;;;;17.82;42.22;101623.09;5029505;28;20390;-68
2022/08/12 05:17:27;;;;;;;9.73;3.70;;;;;;;17.83;42.05;101630.22;5031964;28;20095;-67
2022/08/12 05:19:54;;;;;;;13.23;4.18;;;;;;;17.83;42.21;101630.22;5034694;28;20038;-67
2022/08/12 05:22:25;;;;;;;13.25;3.38;;;;;;;17.96;42.48;101638.56;5033600;28;20048;-67
2022/08/12 05:24:51;;;;;;;11.82;3.58;;;;;;;17.89;42.24;101634.91;5040462;28;20052;-67
2022/08/12 05:27:18;;;;;;;23.77;3.85;;;;;;;18.02;42.04;101632.34;5033980;28;20558;-67
2022/08/12 05:29:48;;;;;;;17.27;4.25;;;;;;;18.10;42.00;101636.88;5035032;28;20065;-67
2022/08/12 05:32:35;;;;;;;36.10;5.43;;;;;;;18.26;41.65;101635.84;5034056;28;20535;-67
2022/08/12 05:35:05;;;;;;;14.55;3.75;;;;;;;18.15;42.16;101633.63;5032283;28;20049;-68
2022/08/12 05:37:33;;;;;;;13.85;3.42;;;;;;;18.11;42.11;101643.13;5029352;28;20045;-68
2022/08/12 05:40:02;;;;;;;17.77;3.88;;;;;;;18.38;41.36;101642.50;5029761;28;20405;-68
2022/08/12 05:42:36;;;;;;;10.18;3.47;;;;;;;18.34;41.69;101643.88;5034437;28;20057;-68
2022/08/12 05:45:03;;;;;;;14.45;3.78;;;;;;;18.48;41.75;101640.31;5033279;28;20041;-68
2022/08/12 05:47:30;;;;;;;12.15;3.30;;;;;;;18.44;41.54;101647.16;5033517;28;20095;-68
2022/08/12 05:50:16;;;;;;;10.30;3.25;;;;;;;18.56;41.36;101642.09;5031760;28;20045;-68
2022/08/12 05:52:43;;;;;;;13.25;4.22;;;;;;;18.66;41.45;101637.19;5034785;28;20132;-68
2022/08/12 05:55:09;;;;;;;13.63;3.30;;;;;;;18.79;41.00;101641.91;5033380;28;20088;-68
2022/08/12 05:57:37;;;;;;;13.32;3.80;;;;;;;18.76;40.87;101647.75;5033093;28;20041;-69
2022/08/12 06:00:05;;;;;;;12.73;3.90;;;;;;;18.79;40.88;101642.78;5033410;28;20061;-68
2022/08/12 06:02:33;;;;;;;15.88;3.65;;;;;;;18.87;40.75;101652.69;5033024;28;20108;-68
2022/08/12 06:04:59;;;;;;;13.30;3.90;;;;;;;18.93;40.55;101649.22;5031848;28;20064;-68
2022/08/12 06:07:26;;;;;;;16.10;3.28;;;;;;;18.96;40.43;101650.69;5030721;28;20497;-68
2022/08/12 06:10:12;;;;;;;9.90;3.60;;;;;;;19.05;40.06;101648.72;5033224;28;20045;-68
2022/08/12 06:12:39;;;;;;;15.65;3.70;;;;;;;19.12;40.09;101655.91;5033017;28;20041;-68
2022/08/12 06:15:06;;;;;;;9.93;3.08;;;;;;;19.31;39.78;101657.13;5033292;28;20065;-68
2022/08/12 06:17:32;;;;;;;19.67;3.20;;;;;;;19.35;39.63;101663.88;5031326;28;20454;-68
2022/08/12 06:19:59;;;;;;;18.55;3.97;;;;;;;19.41;39.52;101656.78;5031990;28;20548;-68
2022/08/12 06:22:50;;;;;;;16.58;3.47;;;;;;;19.40;39.11;101649.66;5037947;28;20425;-68
2022/08/12 06:25:20;;;;;;;11.38;2.90;;;;;;;19.60;38.66;101652.56;5032654;28;20052;-67
2022/08/12 06:27:49;;;;;;;11.95;2.97;;;;;;;19.71;38.38;101660.19;5032679;28;20052;-68
2022/08/12 06:30:35;;;;;;;8.48;3.30;;;;;;;19.85;38.17;101658.41;5031200;28;20049;-68
2022/08/12 06:33:05;;;;;;;13.80;2.83;;;;;;;19.86;38.25;101660.94;5032204;28;20440;-68
2022/08/12 06:35:52;;;;;;;19.75;2.85;;;;;;;19.94;37.85;101657.22;5029033;28;20045;-68
2022/08/12 06:38:24;;;;;;;8.95;2.60;;;;;;;20.14;37.35;101666.38;5033068;28;20547;-68
2022/08/12 06:43:39;;;;;;;13.15;2.90;;;;;;;20.31;36.73;101657.84;5032808;28;20083;-68
2022/08/12 06:46:28;;;;;;;10.90;2.47;;;;;;;20.60;36.29;101659.47;5032868;28;20533;-68
2022/08/12 06:48:57;;;;;;;14.57;2.92;;;;;;;20.70;36.87;101651.75;5032704;28;20060;-68
2022/08/12 06:51:26;;;;;;;18.48;3.92;;;;;;;20.91;36.27;101657.06;5031720;28;20049;-68
2022/08/12 06:53:54;;;;;;;20.17;2.88;;;;;;;20.98;35.42;101651.59;5032873;28;20128;-68
2022/08/12 06:56:22;;;;;;;10.23;2.80;;;;;;;21.03;35.47;101651.81;5032381;28;20053;-68
2022/08/12 06:59:05;;;;;;;15.85;2.45;;;;;;;21.24;34.58;101658.19;5032524;28;20048;-68
2022/08/12 07:01:32;;;;;;;13.38;2.78;;;;;;;21.64;34.56;101656.28;5032307;28;20561;-68
2022/08/12 07:03:58;;;;;;;8.77;2.00;;;;;;;21.89;33.14;101651.03;5032504;28;20045;-68
2022/08/12 07:06:45;;;;;;;9.65;2.47;;;;;;;21.96;32.87;101656.50;5032817;28;20396;-68
2022/08/12 07:09:13;;;;;;;15.68;4.55;;;;;;;22.01;33.75;101648.47;5032403;28;20140;-69
2022/08/12 07:12:00;;;;;;;14.02;3.65;;;;;;;22.49;33.12;101657.16;5031536;28;20041;-68
2022/08/12 07:14:26;;;;;;;13.77;2.58;;;;;;;22.82;31.53;101655.34;5030121;28;20045;-69
2022/08/12 07:16:56;;;;;;;12.93;2.97;;;;;;;22.95;32.17;101647.91;5032131;28;20041;-69
2022/08/12 07:19:23;;;;;;;11.95;1.80;;;;;;;23.00;31.18;101649.97;5031672;28;20152;-69
2022/08/12 07:22:06;;;;;;;8.70;1.90;;;;;;;23.36;30.71;101653.94;5031967;28;20049;-69
2022/08/12 07:24:33;;;;;;;10.23;2.30;;;;;;;23.19;31.14;101651.78;5031405;28;20049;-68
2022/08/12 07:26:59;;;;;;;8.30;2.15;;;;;;;23.26;30.56;101651.69;5030647;28;20468;-68
2022/08/12 07:29:27;;;;;;;12.50;2.17;;;;;;;23.91;29.66;101665.06;5031560;28;20108;-69
2022/08/12 07:32:13;;;;;;;7.60;1.88;;;;;;;24.65;28.73;101660.44;5032409;28;20049;-69
2022/08/12 07:34:41;;;;;;;6.97;1.70;;;;;;;24.58;29.21;101660.50;5032618;28;20083;-69
2022/08/12 07:37:08;;;;;;;8.18;2.10;;;;;;;24.90;28.46;101658.38;5029586;28;20076;-68
2022/08/12 07:39:35;;;;;;;9.50;1.80;;;;;;;25.43;27.91;101658.63;5031034;28;20053;-68
2022/08/12 07:42:03;;;;;;;8.43;1.90;;;;;;;25.64;27.61;101652.59;5030264;28;20072;-68
2022/08/12 07:44:31;;;;;;;11.85;2.00;;;;;;;25.22;28.29;101655.38;5026180;28;20470;-67
2022/08/12 07:46:58;;;;;;;6.63;1.80;;;;;;;25.03;28.75;101654.63;5031733;28;20072;-68
2022/08/12 07:49:26;;;;;;;9.68;1.63;;;;;;;25.33;27.39;101651.81;5031773;28;20075;-69
2022/08/12 07:51:53;;;;;;;8.40;2.25;;;;;;;25.42;27.81;101654.22;5031743;28;20045;-68
2022/08/12 07:54:19;;;;;;;7.82;1.60;;;;;;;25.64;27.46;101654.50;5026947;28;20053;-67
2022/08/12 07:56:46;;;;;;;4.32;1.40;;;;;;;25.77;26.64;101646.84;5033023;28;20088;-68
2022/08/12 07:59:13;;;;;;;8.45;1.52;;;;;;;26.26;26.64;101652.91;5031857;28;20076;-68
2022/08/12 08:01:39;;;;;;;4.60;1.63;;;;;;;26.12;26.64;101658.91;5031252;28;20081;-69
2022/08/12 08:06:53;;;;;;;9.88;1.48;;;;;;;26.13;26.52;101649.56;5030177;28;20125;-69
2022/08/12 08:09:21;;;;;;;5.40;1.73;;;;;;;26.31;26.08;101657.69;5030019;28;20088;-69
2022/08/12 08:14:34;;;;;;;11.50;1.73;;;;;;;26.47;25.45;101645.06;5002471;28;20073;-69
2022/08/12 08:17:02;;;;;;;8.10;1.88;;;;;;;27.09;25.04;101644.34;5010824;28;20065;-69
2022/08/12 08:19:30;;;;;;;7.30;1.58;;;;;;;27.34;23.96;101646.72;5011453;28;20521;-69
2022/08/12 08:21:57;;;;;;;8.10;2.67;;;;;;;26.90;24.81;101639.06;5010891;28;20405;-69
2022/08/12 08:24:26;;;;;;;9.82;2.20;;;;;;;26.79;24.58;101645.44;5010763;28;20054;-69
2022/08/12 08:26:56;;;;;;;14.15;4.22;;;;;;;27.05;25.39;101645.94;5011058;28;20084;-69
2022/08/12 08:29:23;;;;;;;8.50;1.35;;;;;;;27.71;23.20;101644.25;5011450;28;20045;-69
2022/08/12 08:31:56;;;;;;;8.30;1.15;;;;;;;27.89;23.07;101632.97;5010172;28;20099;-69
2022/08/12 08:34:25;;;;;;;6.53;1.85;;;;;;;27.47;23.67;101633.44;5010519;28;20069;-69
2022/08/12 08:37:14;;;;;;;8.80;2.30;;;;;;;25.63;25.91;101636.34;5010848;28;20057;-69
2022/08/12 08:39:42;;;;;;;;;;;;;;;26.95;24.02;101641.91;5024340;28;20045;-69
2022/08/12 08:44:55;;;;;;;11.43;1.48;;;;;;;27.09;23.98;101652.59;5030583;28;20053;-69
2022/08/12 08:47:24;;;;;;;10.48;1.67;;;;;;;27.53;23.03;101650.06;5029958;28;20136;-68
2022/08/12 08:49:50;;;;;;;15.02;1.88;;;;;;;26.95;23.48;101636.38;5030843;28;20136;-68
2022/08/12 08:52:22;;;;;;;16.48;1.75;;;;;;;27.35;23.56;101635.47;5031946;28;20133;-69
2022/08/12 08:55:12;;;;;;;11.82;2.10;;;;;;;26.85;24.56;101638.13;5039373;28;20547;-69
2022/08/12 08:57:42;;;;;;;9.15;1.60;;;;;;;27.62;23.23;101623.72;5034911;28;20132;-69
2022/08/12 09:00:12;;;;;;;5.63;1.00;;;;;;;27.70;22.84;101639.84;5034796;28;20056;-69
2022/08/12 09:02:41;;;;;;;4.22;1.00;;;;;;;27.85;22.46;101634.53;5033900;28;20041;-69
2022/08/12 09:05:24;;;;;;;8.98;1.48;;;;;;;27.37;23.90;101638.78;5034707;28;20045;-68
2022/08/12 09:07:51;;;;;;;5.45;1.30;;;;;;;27.93;22.15;101636.06;5034235;28;20481;-68
2022/08/12 09:10:38;;;;;;;4.57;1.20;;;;;;;28.10;21.93;101636.00;5039395;28;20404;-68
2022/08/12 09:13:31;;;;;;;14.57;2.15;;;;;;;27.33;23.16;101634.84;5034075;28;20053;-69
2022/08/12 09:16:19;;;;;;;8.13;1.50;;;;;;;28.39;21.67;101634.72;5033909;28;20396;-69
2022/08/12 09:18:47;;;;;;;12.35;1.95;;;;;;;27.61;22.98;101630.34;5034011;28;20049;-70
2022/08/12 09:21:20;;;;;;;5.93;1.63;;;;;;;27.21;23.06;101623.03;5032693;28;20045;-68
2022/08/12 09:23:49;;;;;;;7.70;1.20;;;;;;;28.04;21.90;101620.47;5029163;28;20120;-69
2022/08/12 09:26:31;;;;;;;10.18;1.75;;;;;;;28.46;21.58;101622.66;5025710;28;20436;-68
2022/08/12 09:29:03;;;;;;;5.47;1.20;;;;;;;27.69;22.51;101627.97;5033558;28;20046;-69
2022/08/12 09:31:38;;;;;;;1.85;0.95;;;;;;;27.89;21.90;101618.34;5033916;28;20096;-69
2022/08/12 09:34:26;;;;;;;9.80;1.70;;;;;;;27.93;22.17;101612.06;5034291;28;20453;-70
2022/08/12 09:37:02;;;;;;;7.82;1.65;;;;;;;27.60;22.70;101614.88;5033907;28;20104;-69
2022/08/12 09:39:48;;;;;;;6.22;1.40;;;;;;;27.35;23.06;101612.56;5035195;28;20052;-71
2022/08/12 09:45:40;;;;;;;6.35;1.50;;;;;;;28.52;21.54;101613.34;5033018;28;20128;-70
2022/08/12 09:48:28;;;;;;;9.15;1.40;;;;;;;28.72;21.42;101604.44;5031283;28;20493;-70
2022/08/12 09:51:07;;;;;;;7.38;1.20;;;;;;;28.37;21.12;101600.19;5033090;28;20099;-69
2022/08/12 09:53:49;;;;;;;4.72;1.40;;;;;;;28.16;21.99;101607.41;5032291;28;20132;-69
2022/08/12 09:56:34;;;;;;;6.13;1.20;;;;;;;28.47;21.92;101586.53;5032520;28;20099;-68
2022/08/12 09:59:22;;;;;;;4.43;1.20;;;;;;;29.19;20.63;101590.81;5033261;28;20045;-68
2022/08/12 10:02:09;;;;;;;5.45;1.10;;;;;;;29.18;20.33;101597.41;5032700;28;20460;-68
2022/08/12 10:04:56;;;;;;;9.60;1.40;;;;;;;29.21;20.71;101585.84;5031910;28;20128;-68
2022/08/12 10:07:24;;;;;;;3.88;1.25;;;;;;;29.51;20.07;101590.78;5032802;28;20049;-68
2022/08/12 10:09:56;;;;;;;11.40;2.58;;;;;;;28.77;21.09;101577.72;5029510;28;20405;-68
2022/08/12 10:15:30;;;;;;;4.57;1.08;;;;;;;28.88;20.74;101560.16;5032517;28;20049;-68
2022/08/12 10:18:18;;;;;;;7.45;1.15;;;;;;;28.49;21.46;101562.25;5027907;28;20420;-69
2022/08/12 10:20:44;;;;;;;7.32;1.60;;;;;;;27.69;22.62;101555.47;5032134;28;20064;-69
2022/08/12 10:23:11;;;;;;;8.40;2.30;;;;;;;28.62;21.00;101558.25;5036540;28;20075;-69
2022/08/12 10:31:50;;;;;;;6.65;1.50;;;;;;;28.13;21.23;101552.75;5032109;28;20416;-69
2022/08/12 10:34:38;;;;;;;6.40;1.50;;;;;;;28.35;21.29;101556.31;5032054;28;20041;-69
2022/08/12 10:37:19;;;;;;;4.68;1.48;;;;;;;28.01;21.82;101550.13;5032019;28;20099;-68
2022/08/12 10:40:07;;;;;;;7.30;1.20;;;;;;;27.86;21.77;101547.13;5031848;28;20408;-69
2022/08/12 10:45:26;;;;;;;8.30;1.10;;;;;;;27.69;21.82;101541.66;5031332;28;20077;-70
2022/08/12 10:47:55;;;;;;;10.02;1.17;;;;;;;27.02;22.15;101529.66;5032088;28;20097;-68
2022/08/12 10:50:42;;;;;;;9.95;1.30;;;;;;;26.79;22.89;101527.06;5031423;28;20500;-69
2022/08/12 10:53:29;;;;;;;6.38;1.45;;;;;;;26.75;23.00;101537.75;5024836;28;20073;-69
2022/08/12 10:56:16;;;;;;;7.20;1.23;;;;;;;26.88;22.95;101535.75;5031538;28;20049;-69
2022/08/12 10:58:44;;;;;;;10.85;1.63;;;;;;;26.63;22.87;101527.88;5031850;28;20505;-69
2022/08/12 11:01:17;;;;;;;8.23;1.23;;;;;;;27.23;22.00;101532.72;5032908;28;20053;-69
2022/08/12 11:04:04;;;;;;;;;;;;;;;27.34;21.92;101523.56;5031758;28;20051;-70
2022/08/12 11:06:52;;;;;;;9.52;1.60;;;;;;;27.95;21.21;101516.13;5032778;28;19925;-68
2022/08/12 11:09:40;;;;;;;5.93;1.50;;;;;;;27.00;22.29;101526.34;5022202;28;20045;-71
2022/08/12 11:12:28;;;;;;;4.88;1.42;;;;;;;26.97;22.53;101526.00;5032324;28;20449;-71
2022/08/12 11:15:16;;;;;;;7.95;1.63;;;;;;;26.92;22.75;101525.91;5037282;28;20049;-70
2022/08/12 11:17:49;;;;;;;9.02;2.40;;;;;;;27.27;21.93;101531.13;5034714;28;20809;-70
2022/08/12 11:20:23;;;;;;;13.65;1.88;;;;;;;27.26;22.18;101529.47;5034116;28;20435;-69
2022/08/12 11:23:03;;;;;;;9.48;2.08;;;;;;;27.29;22.39;101520.72;5034068;28;20056;-69
2022/08/12 11:25:50;;;;;;;9.43;1.70;;;;;;;27.99;21.40;101512.84;5032077;28;20465;-69
2022/08/12 11:28:23;;;;;;;4.78;1.67;;;;;;;27.34;22.11;101512.53;5031810;28;20046;-69
2022/08/12 11:31:01;;;;;;;8.02;1.50;;;;;;;27.25;22.48;101503.03;5031903;28;20048;-69
2022/08/12 11:33:28;;;;;;;5.32;1.27;;;;;;;27.73;21.93;101509.78;5031256;28;20103;-69
2022/08/12 11:36:15;;;;;;;5.22;1.30;;;;;;;28.07;21.32;101509.63;5030305;28;20053;-69
2022/08/12 11:38:42;;;;;;;7.85;1.15;;;;;;;28.38;21.10;101508.84;5031280;28;20481;-69
2022/08/12 11:41:17;;;;;;;7.43;1.25;;;;;;;28.24;21.19;101504.03;5031471;28;20061;-69
2022/08/12 11:43:57;;;;;;;;;;;;;;;28.39;20.89;101506.94;5025218;28;20049;-69
2022/08/12 11:46:24;;;;;;;9.00;1.10;;;;;;;28.33;20.97;101503.28;5031760;28;19921;-69
2022/08/12 11:48:51;;;;;;;5.20;1.50;;;;;;;29.04;20.25;101497.59;5031276;28;20443;-69
2022/08/12 11:51:19;;;;;;;12.35;1.50;;;;;;;30.18;19.03;101492.34;5030066;28;20382;-69
2022/08/12 11:53:46;;;;;;;7.60;1.15;;;;;;;29.45;20.25;101495.06;5030657;28;20389;-69
2022/08/12 11:56:27;;;;;;;6.03;1.20;;;;;;;29.62;19.50;101494.91;5030164;28;20049;-72
2022/08/12 11:59:04;;;;;;;5.97;1.77;;;;;;;29.16;21.18;101489.13;5031071;28;20292;-70
2022/08/12 12:01:51;;;;;;;4.45;1.20;;;;;;;28.87;20.71;101492.22;5030698;28;20046;-70
2022/08/12 12:04:29;;;;;;;7.90;1.50;;;;;;;28.74;21.07;101480.78;5030516;28;20045;-70
2022/08/12 12:06:57;;;;;;;29.88;2.60;;;;;;;28.22;21.76;101482.22;5031824;28;20169;-70
2022/08/12 12:09:35;;;;;;;13.25;1.55;;;;;;;27.72;22.16;101480.50;5031123;28;20096;-71
2022/08/12 12:12:18;;;;;;;15.52;2.30;;;;;;;27.94;21.82;101483.31;5031291;28;20068;-70
2022/08/12 12:14:46;;;;;;;5.65;1.40;;;;;;;28.13;21.55;101479.09;5030724;28;20055;-70
2022/08/12 12:17:21;;;;;;;10.35;1.42;;;;;;;28.18;21.99;101476.41;5030785;28;20056;-70
2022/08/12 12:19:47;;;;;;;11.32;1.50;;;;;;;27.91;21.65;101462.59;5030990;28;20087;-71
2022/08/12 12:22:14;;;;;;;10.20;1.77;;;;;;;28.03;21.64;101476.22;5030600;28;20151;-70
2022/08/12 12:24:49;;;;;;;9.40;1.20;;;;;;;27.53;22.06;101474.50;5030573;28;20060;-70
2022/08/12 12:27:19;;;;;;;7.93;1.30;;;;;;;27.19;21.90;101466.31;5030714;28;20041;-70
2022/08/12 12:30:06;;;;;;;6.43;1.45;;;;;;;27.78;21.67;101470.41;5029852;28;20049;-70
2022/08/12 12:32:52;;;;;;;5.18;1.13;;;;;;;27.78;21.34;101462.13;5021262;28;20047;-70
2022/08/12 12:35:19;;;;;;;5.63;1.20;;;;;;;27.63;21.48;101457.28;5028186;28;20065;-69
2022/08/12 12:38:11;;;;;;;8.65;1.30;;;;;;;27.40;21.76;101456.41;5030242;28;20052;-71
2022/08/12 12:40:40;;;;;;;6.15;1.20;;;;;;;27.53;21.88;101451.63;5029989;28;20057;-72
2022/08/12 12:43:10;;;;;;;4.07;0.93;;;;;;;27.05;22.46;101458.66;5030013;28;20575;-70
2022/08/12 12:45:38;;;;;;;11.38;1.23;;;;;;;26.77;23.10;101457.69;5030478;28;20045;-69
2022/08/12 12:48:11;;;;;;;8.05;1.30;;;;;;;27.08;22.43;101456.22;5030202;28;20051;-70
2022/08/12 12:50:46;;;;;;;3.05;1.17;;;;;;;27.37;21.86;101456.94;5029870;28;20069;-69
2022/08/12 12:53:20;;;;;;;9.25;1.65;;;;;;;27.08;22.94;101453.47;5029983;28;20100;-70
2022/08/12 12:56:11;;;;;;;3.85;1.25;;;;;;;27.17;22.82;101454.69;5030896;28;20045;-69
2022/08/12 12:58:39;;;;;;;7.15;1.20;;;;;;;26.73;22.94;101457.31;5029981;28;20124;-69
2022/08/12 13:01:12;;;;;;;7.32;1.23;;;;;;;26.48;23.35;101457.75;5029124;28;20409;-70
2022/08/12 13:03:57;;;;;;;8.63;1.58;;;;;;;26.98;22.53;101447.81;5029111;28;20037;-70
2022/08/12 13:06:29;;;;;;;2.38;1.08;;;;;;;26.78;23.06;101456.59;5023983;28;20465;-70
2022/08/12 13:08:58;;;;;;;3.25;1.20;;;;;;;26.92;22.58;101448.81;5029735;28;20049;-70
2022/08/12 13:11:30;;;;;;;6.47;1.20;;;;;;;26.88;23.14;101447.66;5029454;28;20478;-70
2022/08/12 13:14:08;;;;;;;9.98;1.48;;;;;;;26.78;23.08;101448.34;5029208;28;20481;-70
2022/08/12 13:16:55;;;;;;;7.25;1.20;;;;;;;26.64;23.04;101438.72;5030567;28;20056;-69
2022/08/12 13:19:23;;;;;;;5.70;1.48;;;;;;;26.89;23.11;101441.88;5030534;28;20508;-71
2022/08/12 13:22:16;;;;;;;;;;;;;;;27.38;22.69;101438.47;5030861;28;20064;-71
2022/08/12 13:24:47;;;;;;;2.88;1.25;;;;;;;27.34;22.46;101432.63;5026455;28;19953;-70
2022/08/12 13:27:22;;;;;;;10.68;1.60;;;;;;;27.06;22.83;101446.53;5036134;28;20461;-70
2022/08/12 13:30:02;;;;;;;3.45;1.40;;;;;;;27.24;22.66;101449.00;5029915;28;20049;-71
2022/08/12 13:32:32;;;;;;;6.95;1.20;;;;;;;27.29;22.95;101443.56;5029840;28;20045;-70
2022/08/12 13:35:01;;;;;;;11.45;1.13;;;;;;;27.40;22.39;101441.81;5029866;28;20049;-69
2022/08/12 13:37:52;;;;;;;9.50;1.20;;;;;;;27.11;22.50;101435.63;5029321;28;20041;-71
2022/08/12 13:40:26;;;;;;;2.97;0.90;;;;;;;26.58;22.84;101423.22;5033854;28;20511;-71
2022/08/12 13:42:56;;;;;;;4.60;1.17;;;;;;;26.57;22.72;101430.63;5033820;28;20148;-70
2022/08/12 13:45:25;;;;;;;8.40;1.10;;;;;;;26.45;23.20;101436.22;5035115;28;20096;-71